sensor_id;sensor_type;location;lat;lon;timestamp;temperature;humidity
78779;DHT22;68121;52.404;5.318;2024-01-16T00:02:04;2.00;72.90
78779;DHT22;68121;52.404;5.318;2024-01-16T00:04:31;2.00;72.90
78779;DHT22;68121;52.404;5.318;2024-01-16T00:06:57;2.00;73.00
78779;DHT22;68121;52.404;5.318;2024-01-16T00:09:23;2.00;73.00
78779;DHT22;68121;52.404;5.318;2024-01-16T00:11:49;2.00;73.10
78779;DHT22;68121;52.404;5.318;2024-01-16T00:14:15;2.00;73.20
78779;DHT22;68121;52.404;5.318;2024-01-16T00:16:45;2.00;73.20
78779;DHT22;68121;52.404;5.318;2024-01-16T00:19:12;2.00;73.10
78779;DHT22;68121;52.404;5.318;2024-01-16T00:21:42;1.90;73.20
78779;DHT22;68121;52.404;5.318;2024-01-16T00:24:08;1.90;73.20
78779;DHT22;68121;52.404;5.318;2024-01-16T00:26:36;1.90;73.20
78779;DHT22;68121;52.404;5.318;2024-01-16T00:29:02;1.90;73.30
78779;DHT22;68121;52.404;5.318;2024-01-16T00:31:28;1.90;73.20
78779;DHT22;68121;52.404;5.318;2024-01-16T00:33:54;1.90;73.30
78779;DHT22;68121;52.404;5.318;2024-01-16T00:36:20;1.90;73.30
78779;DHT22;68121;52.404;5.318;2024-01-16T00:38:46;1.90;73.30
78779;DHT22;68121;52.404;5.318;2024-01-16T00:41:12;1.80;73.40
78779;DHT22;68121;52.404;5.318;2024-01-16T00:43:42;1.80;73.50
78779;DHT22;68121;52.404;5.318;2024-01-16T00:46:08;1.80;73.50
78779;DHT22;68121;52.404;5.318;2024-01-16T00:48:34;1.80;73.50
78779;DHT22;68121;52.404;5.318;2024-01-16T00:51:00;1.80;73.50
78779;DHT22;68121;52.404;5.318;2024-01-16T00:53:27;1.70;73.50
78779;DHT22;68121;52.404;5.318;2024-01-16T00:55:53;1.70;73.50
78779;DHT22;68121;52.404;5.318;2024-01-16T00:58:22;1.70;73.50
78779;DHT22;68121;52.404;5.318;2024-01-16T01:00:48;1.70;73.60
78779;DHT22;68121;52.404;5.318;2024-01-16T01:03:14;1.70;73.60
78779;DHT22;68121;52.404;5.318;2024-01-16T01:05:42;1.70;73.50
78779;DHT22;68121;52.404;5.318;2024-01-16T01:08:08;1.70;73.40
78779;DHT22;68121;52.404;5.318;2024-01-16T01:10:34;1.70;73.40
78779;DHT22;68121;52.404;5.318;2024-01-16T01:13:00;1.70;73.40
78779;DHT22;68121;52.404;5.318;2024-01-16T01:15:26;1.70;73.40
78779;DHT22;68121;52.404;5.318;2024-01-16T01:17:52;1.70;73.30
78779;DHT22;68121;52.404;5.318;2024-01-16T01:20:20;1.70;73.30
78779;DHT22;68121;52.404;5.318;2024-01-16T01:22:46;1.70;73.20
78779;DHT22;68121;52.404;5.318;2024-01-16T01:25:12;1.70;73.20
78779;DHT22;68121;52.404;5.318;2024-01-16T01:27:39;1.70;73.20
78779;DHT22;68121;52.404;5.318;2024-01-16T01:30:07;1.70;73.20
78779;DHT22;68121;52.404;5.318;2024-01-16T01:32:34;1.70;73.20
78779;DHT22;68121;52.404;5.318;2024-01-16T01:35:00;1.70;73.20
78779;DHT22;68121;52.404;5.318;2024-01-16T01:37:26;1.70;73.10
78779;DHT22;68121;52.404;5.318;2024-01-16T01:39:52;1.70;73.00
78779;DHT22;68121;52.404;5.318;2024-01-16T01:42:18;1.70;73.00
78779;DHT22;68121;52.404;5.318;2024-01-16T01:44:44;1.70;73.10
78779;DHT22;68121;52.404;5.318;2024-01-16T01:47:10;1.60;73.00
78779;DHT22;68121;52.404;5.318;2024-01-16T01:49:37;1.60;73.00
78779;DHT22;68121;52.404;5.318;2024-01-16T01:52:05;1.60;73.10
78779;DHT22;68121;52.404;5.318;2024-01-16T01:54:34;1.60;73.00
78779;DHT22;68121;52.404;5.318;2024-01-16T01:57:02;1.60;73.00
78779;DHT22;68121;52.404;5.318;2024-01-16T01:59:28;1.60;73.00
78779;DHT22;68121;52.404;5.318;2024-01-16T02:01:55;1.60;73.00
78779;DHT22;68121;52.404;5.318;2024-01-16T02:04:22;1.60;73.00
78779;DHT22;68121;52.404;5.318;2024-01-16T02:06:49;1.60;72.90
78779;DHT22;68121;52.404;5.318;2024-01-16T02:09:15;1.60;72.90
78779;DHT22;68121;52.404;5.318;2024-01-16T02:11:44;1.60;72.90
78779;DHT22;68121;52.404;5.318;2024-01-16T02:14:10;1.60;72.80
78779;DHT22;68121;52.404;5.318;2024-01-16T02:16:42;1.50;72.90
78779;DHT22;68121;52.404;5.318;2024-01-16T02:19:10;1.50;73.00
78779;DHT22;68121;52.404;5.318;2024-01-16T02:21:39;1.50;73.00
78779;DHT22;68121;52.404;5.318;2024-01-16T02:24:10;1.50;73.00
78779;DHT22;68121;52.404;5.318;2024-01-16T02:26:37;1.50;73.00
78779;DHT22;68121;52.404;5.318;2024-01-16T02:29:03;1.50;73.10
78779;DHT22;68121;52.404;5.318;2024-01-16T02:31:31;1.40;73.10
78779;DHT22;68121;52.404;5.318;2024-01-16T02:33:57;1.40;73.20
78779;DHT22;68121;52.404;5.318;2024-01-16T02:36:27;1.40;73.30
78779;DHT22;68121;52.404;5.318;2024-01-16T02:38:55;1.40;73.30
78779;DHT22;68121;52.404;5.318;2024-01-16T02:41:21;1.40;73.40
78779;DHT22;68121;52.404;5.318;2024-01-16T02:43:47;1.40;73.40
78779;DHT22;68121;52.404;5.318;2024-01-16T02:46:14;1.40;73.50
78779;DHT22;68121;52.404;5.318;2024-01-16T02:48:40;1.40;73.50
78779;DHT22;68121;52.404;5.318;2024-01-16T02:51:08;1.40;73.50
78779;DHT22;68121;52.404;5.318;2024-01-16T02:53:34;1.40;73.50
78779;DHT22;68121;52.404;5.318;2024-01-16T02:56:00;1.40;73.50
78779;DHT22;68121;52.404;5.318;2024-01-16T02:58:27;1.40;73.60
78779;DHT22;68121;52.404;5.318;2024-01-16T03:00:54;1.40;73.60
78779;DHT22;68121;52.404;5.318;2024-01-16T03:03:20;1.40;73.60
78779;DHT22;68121;52.404;5.318;2024-01-16T03:05:47;1.40;73.60
78779;DHT22;68121;52.404;5.318;2024-01-16T03:08:13;1.40;73.60
78779;DHT22;68121;52.404;5.318;2024-01-16T03:10:39;1.40;73.60
78779;DHT22;68121;52.404;5.318;2024-01-16T03:13:05;1.40;73.60
78779;DHT22;68121;52.404;5.318;2024-01-16T03:15:31;1.40;73.70
78779;DHT22;68121;52.404;5.318;2024-01-16T03:18:01;1.40;73.60
78779;DHT22;68121;52.404;5.318;2024-01-16T03:20:28;1.40;73.70
78779;DHT22;68121;52.404;5.318;2024-01-16T03:22:54;1.40;73.70
78779;DHT22;68121;52.404;5.318;2024-01-16T03:25:20;1.40;73.70
78779;DHT22;68121;52.404;5.318;2024-01-16T03:27:47;1.30;73.60
78779;DHT22;68121;52.404;5.318;2024-01-16T03:30:13;1.30;73.70
78779;DHT22;68121;52.404;5.318;2024-01-16T03:32:40;1.30;73.70
78779;DHT22;68121;52.404;5.318;2024-01-16T03:35:06;1.30;73.80
78779;DHT22;68121;52.404;5.318;2024-01-16T03:37:33;1.30;73.80
78779;DHT22;68121;52.404;5.318;2024-01-16T03:40:00;1.30;73.80
78779;DHT22;68121;52.404;5.318;2024-01-16T03:42:26;1.30;73.80
78779;DHT22;68121;52.404;5.318;2024-01-16T03:44:52;1.30;73.90
78779;DHT22;68121;52.404;5.318;2024-01-16T03:47:20;1.30;73.80
78779;DHT22;68121;52.404;5.318;2024-01-16T03:49:46;1.30;73.80
78779;DHT22;68121;52.404;5.318;2024-01-16T03:52:12;1.30;73.90
78779;DHT22;68121;52.404;5.318;2024-01-16T03:54:38;1.20;73.90
78779;DHT22;68121;52.404;5.318;2024-01-16T03:57:04;1.30;73.90
78779;DHT22;68121;52.404;5.318;2024-01-16T03:59:31;1.30;74.00
78779;DHT22;68121;52.404;5.318;2024-01-16T04:01:57;1.30;74.00
78779;DHT22;68121;52.404;5.318;2024-01-16T04:04:23;1.30;74.10
78779;DHT22;68121;52.404;5.318;2024-01-16T04:06:50;1.30;74.10
78779;DHT22;68121;52.404;5.318;2024-01-16T04:09:16;1.30;74.10
78779;DHT22;68121;52.404;5.318;2024-01-16T04:11:42;1.30;74.10
78779;DHT22;68121;52.404;5.318;2024-01-16T04:14:08;1.30;74.20
78779;DHT22;68121;52.404;5.318;2024-01-16T04:16:34;1.20;74.10
78779;DHT22;68121;52.404;5.318;2024-01-16T04:19:00;1.20;74.10
78779;DHT22;68121;52.404;5.318;2024-01-16T04:21:26;1.20;74.10
78779;DHT22;68121;52.404;5.318;2024-01-16T04:23:52;1.20;74.10
78779;DHT22;68121;52.404;5.318;2024-01-16T04:26:18;1.20;74.10
78779;DHT22;68121;52.404;5.318;2024-01-16T04:28:44;1.20;74.20
78779;DHT22;68121;52.404;5.318;2024-01-16T04:31:11;1.10;74.20
78779;DHT22;68121;52.404;5.318;2024-01-16T04:33:38;1.10;74.20
78779;DHT22;68121;52.404;5.318;2024-01-16T04:36:05;1.20;74.20
78779;DHT22;68121;52.404;5.318;2024-01-16T04:38:31;1.10;74.10
78779;DHT22;68121;52.404;5.318;2024-01-16T04:41:01;1.10;74.20
78779;DHT22;68121;52.404;5.318;2024-01-16T04:43:28;1.10;74.20
78779;DHT22;68121;52.404;5.318;2024-01-16T04:45:54;1.10;74.20
78779;DHT22;68121;52.404;5.318;2024-01-16T04:48:20;1.10;74.30
78779;DHT22;68121;52.404;5.318;2024-01-16T04:50:46;1.00;74.30
78779;DHT22;68121;52.404;5.318;2024-01-16T04:53:12;1.00;74.40
78779;DHT22;68121;52.404;5.318;2024-01-16T04:55:38;1.00;74.50
78779;DHT22;68121;52.404;5.318;2024-01-16T04:58:05;1.10;74.50
78779;DHT22;68121;52.404;5.318;2024-01-16T05:00:31;1.10;74.50
78779;DHT22;68121;52.404;5.318;2024-01-16T05:02:58;1.10;74.50
78779;DHT22;68121;52.404;5.318;2024-01-16T05:05:24;1.10;74.60
78779;DHT22;68121;52.404;5.318;2024-01-16T05:07:50;1.10;74.60
78779;DHT22;68121;52.404;5.318;2024-01-16T05:10:16;1.10;74.60
78779;DHT22;68121;52.404;5.318;2024-01-16T05:12:43;1.00;74.70
78779;DHT22;68121;52.404;5.318;2024-01-16T05:15:11;1.00;74.70
78779;DHT22;68121;52.404;5.318;2024-01-16T05:17:37;1.00;74.70
78779;DHT22;68121;52.404;5.318;2024-01-16T05:20:04;1.00;74.70
78779;DHT22;68121;52.404;5.318;2024-01-16T05:22:30;1.00;74.70
78779;DHT22;68121;52.404;5.318;2024-01-16T05:24:57;1.00;74.80
78779;DHT22;68121;52.404;5.318;2024-01-16T05:27:23;1.00;74.80
78779;DHT22;68121;52.404;5.318;2024-01-16T05:29:49;1.00;74.80
78779;DHT22;68121;52.404;5.318;2024-01-16T05:32:15;1.00;74.80
78779;DHT22;68121;52.404;5.318;2024-01-16T05:34:41;0.90;74.90
78779;DHT22;68121;52.404;5.318;2024-01-16T05:37:07;0.90;75.00
78779;DHT22;68121;52.404;5.318;2024-01-16T05:39:33;0.90;75.00
78779;DHT22;68121;52.404;5.318;2024-01-16T05:41:59;0.90;75.00
78779;DHT22;68121;52.404;5.318;2024-01-16T05:44:25;0.90;75.00
78779;DHT22;68121;52.404;5.318;2024-01-16T05:46:52;0.90;75.00
78779;DHT22;68121;52.404;5.318;2024-01-16T05:49:18;1.00;75.00
78779;DHT22;68121;52.404;5.318;2024-01-16T05:51:44;1.00;75.00
78779;DHT22;68121;52.404;5.318;2024-01-16T05:54:10;1.00;75.10
78779;DHT22;68121;52.404;5.318;2024-01-16T05:56:36;1.00;75.00
78779;DHT22;68121;52.404;5.318;2024-01-16T05:59:02;0.90;75.00
78779;DHT22;68121;52.404;5.318;2024-01-16T06:01:28;0.90;75.00
78779;DHT22;68121;52.404;5.318;2024-01-16T06:03:54;1.00;75.10
78779;DHT22;68121;52.404;5.318;2024-01-16T06:06:20;1.00;75.10
78779;DHT22;68121;52.404;5.318;2024-01-16T06:08:47;0.90;75.10
78779;DHT22;68121;52.404;5.318;2024-01-16T06:11:13;0.90;75.10
78779;DHT22;68121;52.404;5.318;2024-01-16T06:13:39;0.90;75.20
78779;DHT22;68121;52.404;5.318;2024-01-16T06:16:08;1.00;75.20
78779;DHT22;68121;52.404;5.318;2024-01-16T06:18:35;0.90;75.20
78779;DHT22;68121;52.404;5.318;2024-01-16T06:21:02;0.90;75.20
78779;DHT22;68121;52.404;5.318;2024-01-16T06:23:28;0.90;75.10
78779;DHT22;68121;52.404;5.318;2024-01-16T06:25:55;1.00;75.40
78779;DHT22;68121;52.404;5.318;2024-01-16T06:28:21;1.00;75.20
78779;DHT22;68121;52.404;5.318;2024-01-16T06:30:47;1.00;75.10
78779;DHT22;68121;52.404;5.318;2024-01-16T06:33:13;1.00;75.10
78779;DHT22;68121;52.404;5.318;2024-01-16T06:35:39;1.00;75.10
78779;DHT22;68121;52.404;5.318;2024-01-16T06:38:05;1.00;75.10
78779;DHT22;68121;52.404;5.318;2024-01-16T06:40:31;0.90;75.10
78779;DHT22;68121;52.404;5.318;2024-01-16T06:42:57;0.90;75.20
78779;DHT22;68121;52.404;5.318;2024-01-16T06:45:23;0.90;75.30
78779;DHT22;68121;52.404;5.318;2024-01-16T06:47:51;0.90;75.20
78779;DHT22;68121;52.404;5.318;2024-01-16T06:50:17;0.90;75.30
78779;DHT22;68121;52.404;5.318;2024-01-16T06:52:43;0.90;75.20
78779;DHT22;68121;52.404;5.318;2024-01-16T06:55:09;0.90;75.30
78779;DHT22;68121;52.404;5.318;2024-01-16T06:57:35;0.90;75.20
78779;DHT22;68121;52.404;5.318;2024-01-16T07:00:02;1.00;75.20
78779;DHT22;68121;52.404;5.318;2024-01-16T07:02:29;1.00;75.20
78779;DHT22;68121;52.404;5.318;2024-01-16T07:04:55;1.00;75.20
78779;DHT22;68121;52.404;5.318;2024-01-16T07:07:21;1.00;75.20
78779;DHT22;68121;52.404;5.318;2024-01-16T07:09:47;1.00;75.20
78779;DHT22;68121;52.404;5.318;2024-01-16T07:12:13;1.00;75.10
78779;DHT22;68121;52.404;5.318;2024-01-16T07:14:39;1.00;75.20
78779;DHT22;68121;52.404;5.318;2024-01-16T07:17:06;0.90;75.20
78779;DHT22;68121;52.404;5.318;2024-01-16T07:19:33;0.90;75.10
78779;DHT22;68121;52.404;5.318;2024-01-16T07:22:00;0.80;75.10
78779;DHT22;68121;52.404;5.318;2024-01-16T07:24:26;0.80;75.20
78779;DHT22;68121;52.404;5.318;2024-01-16T07:26:52;0.80;75.20
78779;DHT22;68121;52.404;5.318;2024-01-16T07:29:20;0.80;75.30
78779;DHT22;68121;52.404;5.318;2024-01-16T07:31:46;0.80;75.40
78779;DHT22;68121;52.404;5.318;2024-01-16T07:34:12;0.80;75.50
78779;DHT22;68121;52.404;5.318;2024-01-16T07:36:38;0.90;75.50
78779;DHT22;68121;52.404;5.318;2024-01-16T07:39:04;0.90;75.50
78779;DHT22;68121;52.404;5.318;2024-01-16T07:41:30;1.00;75.40
78779;DHT22;68121;52.404;5.318;2024-01-16T07:43:56;1.00;75.40
78779;DHT22;68121;52.404;5.318;2024-01-16T07:46:22;1.00;75.50
78779;DHT22;68121;52.404;5.318;2024-01-16T07:48:49;1.00;75.50
78779;DHT22;68121;52.404;5.318;2024-01-16T07:51:15;1.00;75.50
78779;DHT22;68121;52.404;5.318;2024-01-16T07:53:41;1.00;75.40
78779;DHT22;68121;52.404;5.318;2024-01-16T07:56:07;1.00;75.50
78779;DHT22;68121;52.404;5.318;2024-01-16T07:58:33;1.00;75.40
78779;DHT22;68121;52.404;5.318;2024-01-16T08:00:59;1.00;75.40
78779;DHT22;68121;52.404;5.318;2024-01-16T08:03:25;1.00;75.40
78779;DHT22;68121;52.404;5.318;2024-01-16T08:05:51;1.00;75.50
78779;DHT22;68121;52.404;5.318;2024-01-16T08:08:17;1.00;75.50
78779;DHT22;68121;52.404;5.318;2024-01-16T08:10:43;1.00;75.70
78779;DHT22;68121;52.404;5.318;2024-01-16T08:13:10;1.00;75.50
78779;DHT22;68121;52.404;5.318;2024-01-16T08:15:36;1.00;75.60
78779;DHT22;68121;52.404;5.318;2024-01-16T08:18:03;1.00;75.60
78779;DHT22;68121;52.404;5.318;2024-01-16T08:20:29;1.00;75.60
78779;DHT22;68121;52.404;5.318;2024-01-16T08:22:56;1.00;75.50
78779;DHT22;68121;52.404;5.318;2024-01-16T08:25:22;1.00;75.60
78779;DHT22;68121;52.404;5.318;2024-01-16T08:27:48;1.00;75.60
78779;DHT22;68121;52.404;5.318;2024-01-16T08:30:14;1.00;75.60
78779;DHT22;68121;52.404;5.318;2024-01-16T08:32:40;1.00;75.60
78779;DHT22;68121;52.404;5.318;2024-01-16T08:35:06;1.00;75.60
78779;DHT22;68121;52.404;5.318;2024-01-16T08:37:33;1.00;75.70
78779;DHT22;68121;52.404;5.318;2024-01-16T08:40:00;1.00;75.70
78779;DHT22;68121;52.404;5.318;2024-01-16T08:42:26;1.00;75.70
78779;DHT22;68121;52.404;5.318;2024-01-16T08:44:53;1.00;75.70
78779;DHT22;68121;52.404;5.318;2024-01-16T08:47:19;1.10;75.60
78779;DHT22;68121;52.404;5.318;2024-01-16T08:49:45;1.10;75.70
78779;DHT22;68121;52.404;5.318;2024-01-16T08:52:11;1.10;75.70
78779;DHT22;68121;52.404;5.318;2024-01-16T08:54:37;1.10;75.70
78779;DHT22;68121;52.404;5.318;2024-01-16T08:57:03;1.20;75.70
78779;DHT22;68121;52.404;5.318;2024-01-16T08:59:30;1.20;75.60
78779;DHT22;68121;52.404;5.318;2024-01-16T09:01:56;1.30;75.70
78779;DHT22;68121;52.404;5.318;2024-01-16T09:04:22;1.40;75.70
78779;DHT22;68121;52.404;5.318;2024-01-16T09:06:48;1.40;75.60
78779;DHT22;68121;52.404;5.318;2024-01-16T09:09:17;1.40;75.60
78779;DHT22;68121;52.404;5.318;2024-01-16T09:11:43;1.40;75.50
78779;DHT22;68121;52.404;5.318;2024-01-16T09:14:09;1.40;75.50
78779;DHT22;68121;52.404;5.318;2024-01-16T09:16:35;1.40;75.60
78779;DHT22;68121;52.404;5.318;2024-01-16T09:19:01;1.40;75.70
78779;DHT22;68121;52.404;5.318;2024-01-16T09:21:27;1.40;75.60
78779;DHT22;68121;52.404;5.318;2024-01-16T09:23:54;1.40;75.70
78779;DHT22;68121;52.404;5.318;2024-01-16T09:26:20;1.40;75.60
78779;DHT22;68121;52.404;5.318;2024-01-16T09:28:46;1.40;75.60
78779;DHT22;68121;52.404;5.318;2024-01-16T09:31:14;1.40;75.50
78779;DHT22;68121;52.404;5.318;2024-01-16T09:33:40;1.40;75.50
78779;DHT22;68121;52.404;5.318;2024-01-16T09:36:06;1.40;75.60
78779;DHT22;68121;52.404;5.318;2024-01-16T09:38:32;1.40;75.60
78779;DHT22;68121;52.404;5.318;2024-01-16T09:40:58;1.40;75.60
78779;DHT22;68121;52.404;5.318;2024-01-16T09:43:28;1.40;75.70
78779;DHT22;68121;52.404;5.318;2024-01-16T09:45:55;1.40;75.70
78779;DHT22;68121;52.404;5.318;2024-01-16T09:48:22;1.40;75.70
78779;DHT22;68121;52.404;5.318;2024-01-16T09:50:48;1.50;75.60
78779;DHT22;68121;52.404;5.318;2024-01-16T09:53:14;1.50;75.50
78779;DHT22;68121;52.404;5.318;2024-01-16T09:55:40;1.60;75.40
78779;DHT22;68121;52.404;5.318;2024-01-16T09:58:09;1.60;75.40
78779;DHT22;68121;52.404;5.318;2024-01-16T10:00:38;1.60;75.40
78779;DHT22;68121;52.404;5.318;2024-01-16T10:03:06;1.60;75.40
78779;DHT22;68121;52.404;5.318;2024-01-16T10:05:33;1.60;75.40
78779;DHT22;68121;52.404;5.318;2024-01-16T10:07:59;1.70;75.30
78779;DHT22;68121;52.404;5.318;2024-01-16T10:10:25;1.70;75.20
78779;DHT22;68121;52.404;5.318;2024-01-16T10:12:55;1.80;75.20
78779;DHT22;68121;52.404;5.318;2024-01-16T10:15:22;1.80;75.10
78779;DHT22;68121;52.404;5.318;2024-01-16T10:17:48;1.80;75.10
78779;DHT22;68121;52.404;5.318;2024-01-16T10:20:14;1.90;75.00
78779;DHT22;68121;52.404;5.318;2024-01-16T10:22:54;1.90;74.90
78779;DHT22;68121;52.404;5.318;2024-01-16T10:25:20;1.90;74.80
78779;DHT22;68121;52.404;5.318;2024-01-16T10:27:48;1.90;74.80
78779;DHT22;68121;52.404;5.318;2024-01-16T10:30:21;1.90;74.80
78779;DHT22;68121;52.404;5.318;2024-01-16T10:32:47;1.90;74.70
78779;DHT22;68121;52.404;5.318;2024-01-16T10:35:14;2.00;74.70
78779;DHT22;68121;52.404;5.318;2024-01-16T10:37:51;2.00;74.60
78779;DHT22;68121;52.404;5.318;2024-01-16T10:40:25;2.00;74.50
78779;DHT22;68121;52.404;5.318;2024-01-16T10:43:04;2.10;74.50
78779;DHT22;68121;52.404;5.318;2024-01-16T10:45:32;2.10;74.50
78779;DHT22;68121;52.404;5.318;2024-01-16T10:48:07;2.10;74.30
78779;DHT22;68121;52.404;5.318;2024-01-16T10:50:35;2.10;74.30
78779;DHT22;68121;52.404;5.318;2024-01-16T10:53:06;2.20;74.30
78779;DHT22;68121;52.404;5.318;2024-01-16T10:55:53;2.20;74.20
78779;DHT22;68121;52.404;5.318;2024-01-16T10:58:23;2.30;74.10
78779;DHT22;68121;52.404;5.318;2024-01-16T11:00:54;2.30;73.90
78779;DHT22;68121;52.404;5.318;2024-01-16T11:03:29;2.30;74.00
78779;DHT22;68121;52.404;5.318;2024-01-16T11:06:00;2.40;73.80
78779;DHT22;68121;52.404;5.318;2024-01-16T11:08:27;2.50;73.70
78779;DHT22;68121;52.404;5.318;2024-01-16T11:10:58;2.80;73.50
78779;DHT22;68121;52.404;5.318;2024-01-16T11:13:25;3.00;73.20
78779;DHT22;68121;52.404;5.318;2024-01-16T11:15:51;3.10;72.80
78779;DHT22;68121;52.404;5.318;2024-01-16T11:18:19;3.30;72.50
78779;DHT22;68121;52.404;5.318;2024-01-16T11:20:46;3.50;72.30
78779;DHT22;68121;52.404;5.318;2024-01-16T11:23:13;3.60;72.10
78779;DHT22;68121;52.404;5.318;2024-01-16T11:25:39;3.90;71.80
78779;DHT22;68121;52.404;5.318;2024-01-16T11:28:14;4.00;71.40
78779;DHT22;68121;52.404;5.318;2024-01-16T11:30:42;4.00;71.00
78779;DHT22;68121;52.404;5.318;2024-01-16T11:35:59;3.90;70.90
78779;DHT22;68121;52.404;5.318;2024-01-16T11:38:26;3.80;71.10
78779;DHT22;68121;52.404;5.318;2024-01-16T11:40:55;3.70;71.20
78779;DHT22;68121;52.404;5.318;2024-01-16T11:46:00;3.70;71.30
78779;DHT22;68121;52.404;5.318;2024-01-16T11:48:27;3.60;71.20
78779;DHT22;68121;52.404;5.318;2024-01-16T11:50:53;3.60;71.30
78779;DHT22;68121;52.404;5.318;2024-01-16T11:53:33;3.70;71.20
78779;DHT22;68121;52.404;5.318;2024-01-16T12:01:18;3.80;70.80
78779;DHT22;68121;52.404;5.318;2024-01-16T12:04:06;3.70;70.90
78779;DHT22;68121;52.404;5.318;2024-01-16T12:06:36;3.70;70.90
78779;DHT22;68121;52.404;5.318;2024-01-16T12:09:13;3.70;70.90
78779;DHT22;68121;52.404;5.318;2024-01-16T12:11:40;3.70;70.80
78779;DHT22;68121;52.404;5.318;2024-01-16T12:14:09;3.70;70.70
78779;DHT22;68121;52.404;5.318;2024-01-16T12:16:35;3.70;70.70
78779;DHT22;68121;52.404;5.318;2024-01-16T12:19:08;3.80;70.60
78779;DHT22;68121;52.404;5.318;2024-01-16T12:21:42;3.80;70.50
78779;DHT22;68121;52.404;5.318;2024-01-16T12:24:12;3.90;70.40
78779;DHT22;68121;52.404;5.318;2024-01-16T12:26:39;3.90;70.40
78779;DHT22;68121;52.404;5.318;2024-01-16T12:29:07;3.90;70.20
78779;DHT22;68121;52.404;5.318;2024-01-16T12:31:33;3.90;70.00
78779;DHT22;68121;52.404;5.318;2024-01-16T12:36:36;4.00;69.90
78779;DHT22;68121;52.404;5.318;2024-01-16T12:39:02;4.00;69.90
78779;DHT22;68121;52.404;5.318;2024-01-16T12:41:32;3.90;69.80
78779;DHT22;68121;52.404;5.318;2024-01-16T12:44:00;3.90;69.80
78779;DHT22;68121;52.404;5.318;2024-01-16T12:46:26;4.00;69.80
78779;DHT22;68121;52.404;5.318;2024-01-16T12:49:01;4.00;69.70
78779;DHT22;68121;52.404;5.318;2024-01-16T12:51:27;4.10;69.60
78779;DHT22;68121;52.404;5.318;2024-01-16T12:53:53;4.00;69.40
78779;DHT22;68121;52.404;5.318;2024-01-16T12:56:19;4.00;69.40
78779;DHT22;68121;52.404;5.318;2024-01-16T12:58:46;4.00;69.30
78779;DHT22;68121;52.404;5.318;2024-01-16T13:01:24;4.00;69.30
78779;DHT22;68121;52.404;5.318;2024-01-16T13:03:50;4.00;69.30
78779;DHT22;68121;52.404;5.318;2024-01-16T13:06:21;4.00;69.20
78779;DHT22;68121;52.404;5.318;2024-01-16T13:08:47;4.00;69.20
78779;DHT22;68121;52.404;5.318;2024-01-16T13:11:14;4.10;69.30
78779;DHT22;68121;52.404;5.318;2024-01-16T13:13:46;4.20;69.10
78779;DHT22;68121;52.404;5.318;2024-01-16T13:16:16;4.40;68.80
78779;DHT22;68121;52.404;5.318;2024-01-16T13:18:43;4.50;68.50
78779;DHT22;68121;52.404;5.318;2024-01-16T13:21:09;4.70;68.10
78779;DHT22;68121;52.404;5.318;2024-01-16T13:23:35;4.70;67.90
78779;DHT22;68121;52.404;5.318;2024-01-16T13:26:01;4.70;67.80
78779;DHT22;68121;52.404;5.318;2024-01-16T13:28:30;4.90;67.60
78779;DHT22;68121;52.404;5.318;2024-01-16T13:30:57;5.00;67.40
78779;DHT22;68121;52.404;5.318;2024-01-16T13:33:24;5.00;67.10
78779;DHT22;68121;52.404;5.318;2024-01-16T13:35:53;5.00;66.90
78779;DHT22;68121;52.404;5.318;2024-01-16T13:38:23;5.10;66.80
78779;DHT22;68121;52.404;5.318;2024-01-16T13:40:49;5.20;66.60
78779;DHT22;68121;52.404;5.318;2024-01-16T13:43:16;5.30;66.50
78779;DHT22;68121;52.404;5.318;2024-01-16T13:45:42;5.30;66.30
78779;DHT22;68121;52.404;5.318;2024-01-16T13:48:08;5.40;66.10
78779;DHT22;68121;52.404;5.318;2024-01-16T13:50:35;5.50;66.10
78779;DHT22;68121;52.404;5.318;2024-01-16T13:53:02;5.50;65.90
78779;DHT22;68121;52.404;5.318;2024-01-16T13:55:28;5.50;65.80
78779;DHT22;68121;52.404;5.318;2024-01-16T13:57:54;5.60;65.70
78779;DHT22;68121;52.404;5.318;2024-01-16T14:00:20;5.60;65.70
78779;DHT22;68121;52.404;5.318;2024-01-16T14:02:47;5.60;65.50
78779;DHT22;68121;52.404;5.318;2024-01-16T14:05:15;5.60;65.40
78779;DHT22;68121;52.404;5.318;2024-01-16T14:07:41;5.60;65.30
78779;DHT22;68121;52.404;5.318;2024-01-16T14:10:08;5.60;65.20
78779;DHT22;68121;52.404;5.318;2024-01-16T14:12:39;5.60;65.20
78779;DHT22;68121;52.404;5.318;2024-01-16T14:15:05;5.60;65.20
78779;DHT22;68121;52.404;5.318;2024-01-16T14:17:45;5.60;65.30
78779;DHT22;68121;52.404;5.318;2024-01-16T14:20:12;5.50;65.10
78779;DHT22;68121;52.404;5.318;2024-01-16T14:22:39;5.50;65.20
78779;DHT22;68121;52.404;5.318;2024-01-16T14:25:10;5.50;65.40
78779;DHT22;68121;52.404;5.318;2024-01-16T14:27:42;5.50;65.30
78779;DHT22;68121;52.404;5.318;2024-01-16T14:30:13;5.50;65.40
78779;DHT22;68121;52.404;5.318;2024-01-16T14:32:43;5.50;65.40
78779;DHT22;68121;52.404;5.318;2024-01-16T14:35:11;5.30;65.40
78779;DHT22;68121;52.404;5.318;2024-01-16T14:37:39;5.20;65.40
78779;DHT22;68121;52.404;5.318;2024-01-16T14:40:07;5.10;65.40
78779;DHT22;68121;52.404;5.318;2024-01-16T14:42:54;4.90;65.40
78779;DHT22;68121;52.404;5.318;2024-01-16T14:45:23;4.70;65.60
78779;DHT22;68121;52.404;5.318;2024-01-16T14:47:49;4.70;65.70
78779;DHT22;68121;52.404;5.318;2024-01-16T14:50:17;4.70;65.80
78779;DHT22;68121;52.404;5.318;2024-01-16T14:52:44;4.70;65.70
78779;DHT22;68121;52.404;5.318;2024-01-16T14:55:11;4.70;65.70
78779;DHT22;68121;52.404;5.318;2024-01-16T14:57:40;4.70;65.60
78779;DHT22;68121;52.404;5.318;2024-01-16T15:00:13;4.60;65.60
78779;DHT22;68121;52.404;5.318;2024-01-16T15:02:46;4.50;65.40
78779;DHT22;68121;52.404;5.318;2024-01-16T15:05:18;4.50;65.50
78779;DHT22;68121;52.404;5.318;2024-01-16T15:07:46;4.50;65.60
78779;DHT22;68121;52.404;5.318;2024-01-16T15:10:12;4.50;65.60
78779;DHT22;68121;52.404;5.318;2024-01-16T15:12:43;4.50;65.70
78779;DHT22;68121;52.404;5.318;2024-01-16T15:15:11;4.50;65.60
78779;DHT22;68121;52.404;5.318;2024-01-16T15:17:41;4.40;65.50
78779;DHT22;68121;52.404;5.318;2024-01-16T15:20:08;4.40;65.50
78779;DHT22;68121;52.404;5.318;2024-01-16T15:22:40;4.50;65.70
78779;DHT22;68121;52.404;5.318;2024-01-16T15:25:07;4.70;65.20
78779;DHT22;68121;52.404;5.318;2024-01-16T15:27:33;4.60;65.00
78779;DHT22;68121;52.404;5.318;2024-01-16T15:29:59;4.50;65.00
78779;DHT22;68121;52.404;5.318;2024-01-16T15:32:26;4.40;65.10
78779;DHT22;68121;52.404;5.318;2024-01-16T15:34:52;4.30;65.00
78779;DHT22;68121;52.404;5.318;2024-01-16T15:37:18;4.20;65.10
78779;DHT22;68121;52.404;5.318;2024-01-16T15:39:44;4.20;65.10
78779;DHT22;68121;52.404;5.318;2024-01-16T15:42:12;4.10;65.10
78779;DHT22;68121;52.404;5.318;2024-01-16T15:44:38;4.00;65.00
78779;DHT22;68121;52.404;5.318;2024-01-16T15:47:04;3.90;65.10
78779;DHT22;68121;52.404;5.318;2024-01-16T15:49:30;3.90;65.20
78779;DHT22;68121;52.404;5.318;2024-01-16T15:51:57;3.90;65.20
78779;DHT22;68121;52.404;5.318;2024-01-16T15:54:25;3.80;65.10
78779;DHT22;68121;52.404;5.318;2024-01-16T15:56:53;3.70;65.20
78779;DHT22;68121;52.404;5.318;2024-01-16T15:59:20;3.70;65.10